createdAt,value
2017-06-16T00:00:20.343Z,18.05
2017-06-16T00:00:48.414Z,18.05
2017-06-16T00:01:16.488Z,18.15
2017-06-16T00:01:44.630Z,18.12
2017-06-16T00:02:12.782Z,18.11
2017-06-16T00:02:40.929Z,18.09
2017-06-16T00:03:08.950Z,18.05
2017-06-16T00:03:37.092Z,18.12
2017-06-16T00:04:05.229Z,18.06
2017-06-16T00:04:33.261Z,18.13
2017-06-16T00:05:01.390Z,18.11
2017-06-16T00:05:29.447Z,18.15
2017-06-16T00:05:57.570Z,18.05
2017-06-16T00:06:25.681Z,18.02
2017-06-16T00:06:53.723Z,18.02
2017-06-16T00:07:21.667Z,18
2017-06-16T00:07:49.828Z,17.97
2017-06-16T00:08:17.890Z,17.98
2017-06-16T00:08:46.033Z,17.95
2017-06-16T00:09:13.982Z,17.95
2017-06-16T00:09:42.138Z,17.94
2017-06-16T00:10:10.182Z,17.88
2017-06-16T00:10:38.220Z,17.98
2017-06-16T00:11:06.382Z,17.93
2017-06-16T00:11:34.542Z,17.98
2017-06-16T00:12:02.690Z,17.91
2017-06-16T00:12:30.854Z,17.95
2017-06-16T00:12:58.889Z,17.93
2017-06-16T00:13:26.960Z,17.95
2017-06-16T00:13:55.037Z,17.88
2017-06-16T00:14:23.202Z,17.88
2017-06-16T00:14:51.368Z,17.91
2017-06-16T00:15:19.509Z,17.94
2017-06-16T00:15:47.652Z,17.88
2017-06-16T00:16:15.728Z,17.84
2017-06-16T00:16:43.869Z,17.8
2017-06-16T00:17:12.005Z,17.8
2017-06-16T00:17:40.082Z,17.8
2017-06-16T00:18:08.234Z,17.75
2017-06-16T00:18:36.297Z,17.78
2017-06-16T00:19:04.439Z,17.78
2017-06-16T00:19:32.592Z,17.75
2017-06-16T00:20:00.625Z,17.71
2017-06-16T00:20:28.764Z,17.76
2017-06-16T00:20:56.935Z,17.72
2017-06-16T00:21:25.088Z,17.78
2017-06-16T00:21:53.220Z,17.78
2017-06-16T00:22:21.260Z,17.75
2017-06-16T00:22:49.334Z,17.73
2017-06-16T00:23:17.468Z,17.72
2017-06-16T00:23:45.618Z,17.79
2017-06-16T00:24:13.787Z,17.75
2017-06-16T00:24:41.929Z,17.82
2017-06-16T00:25:10.075Z,17.76
2017-06-16T00:25:38.136Z,17.79
2017-06-16T00:26:06.200Z,17.84
2017-06-16T00:26:34.308Z,17.82
2017-06-16T00:27:02.375Z,17.84
2017-06-16T00:27:30.509Z,17.82
2017-06-16T00:27:58.629Z,17.86
2017-06-16T00:28:26.775Z,17.86
2017-06-16T00:28:54.934Z,17.82
2017-06-16T00:29:23.079Z,17.9
2017-06-16T00:29:51.218Z,17.9
2017-06-16T00:30:19.357Z,17.93
2017-06-16T00:30:47.495Z,17.91
2017-06-16T00:31:15.618Z,17.93
2017-06-16T00:31:43.777Z,17.88
2017-06-16T00:32:11.840Z,17.87
2017-06-16T00:32:39.978Z,17.87
2017-06-16T00:33:08.095Z,17.91
2017-06-16T00:33:36.224Z,17.98
2017-06-16T00:34:04.374Z,17.88
2017-06-16T00:34:32.508Z,17.93
2017-06-16T00:35:00.551Z,17.88
2017-06-16T00:35:28.606Z,17.9
2017-06-16T00:35:56.728Z,17.86
2017-06-16T00:36:24.887Z,17.78
2017-06-16T00:36:53.074Z,17.84
2017-06-16T00:37:21.230Z,17.86
2017-06-16T00:37:49.276Z,17.8
2017-06-16T00:38:17.232Z,17.8
2017-06-16T00:38:45.258Z,17.79
2017-06-16T00:39:13.317Z,17.79
2017-06-16T00:39:41.471Z,17.75
2017-06-16T00:40:09.502Z,17.73
2017-06-16T00:40:37.722Z,17.79
2017-06-16T00:41:05.852Z,17.75
2017-06-16T00:41:34.001Z,17.72
2017-06-16T00:42:02.137Z,17.63
2017-06-16T00:42:30.210Z,17.68
2017-06-16T00:42:58.345Z,17.6
2017-06-16T00:43:26.462Z,17.63
2017-06-16T00:43:54.508Z,17.6
2017-06-16T00:44:22.651Z,17.6
2017-06-16T00:44:50.704Z,17.54
2017-06-16T00:45:18.763Z,17.65
2017-06-16T00:45:46.918Z,17.56
2017-06-16T00:46:15.061Z,17.6
2017-06-16T00:46:43.097Z,17.53
2017-06-16T00:47:11.236Z,17.57
2017-06-16T00:47:39.285Z,17.54
2017-06-16T00:48:07.343Z,17.5
2017-06-16T00:48:35.462Z,17.49
2017-06-16T00:49:03.604Z,17.46
2017-06-16T00:49:31.762Z,17.44
2017-06-16T00:49:59.916Z,17.42
2017-06-16T00:50:27.977Z,17.49
2017-06-16T00:50:56.113Z,17.39
2017-06-16T00:51:24.283Z,17.5
2017-06-16T00:51:52.413Z,17.42
2017-06-16T00:52:20.467Z,17.42
2017-06-16T00:52:48.416Z,17.41
2017-06-16T00:53:16.441Z,17.37
2017-06-16T00:53:44.259Z,17.35
2017-06-16T00:54:12.406Z,17.41
2017-06-16T00:54:40.546Z,17.38
2017-06-16T00:55:08.682Z,17.41
2017-06-16T00:55:36.727Z,17.37
2017-06-16T00:56:04.861Z,17.34
2017-06-16T00:56:33.007Z,17.37
2017-06-16T00:57:01.044Z,17.47
2017-06-16T00:57:29.176Z,17.35
2017-06-16T00:57:57.285Z,17.37
2017-06-16T00:58:25.256Z,17.34
2017-06-16T00:58:53.414Z,17.41
2017-06-16T00:59:21.545Z,17.39
2017-06-16T00:59:49.687Z,17.38
2017-06-16T01:00:17.845Z,17.39
2017-06-16T01:00:46.801Z,17.39
2017-06-16T01:01:14.923Z,17.5
2017-06-16T01:01:43.070Z,17.34
2017-06-16T01:02:11.198Z,17.44
2017-06-16T01:02:39.331Z,17.39
2017-06-16T01:03:07.467Z,17.41
2017-06-16T01:03:35.588Z,17.42
2017-06-16T01:04:03.731Z,17.37
2017-06-16T01:04:31.891Z,17.3
2017-06-16T01:05:00.044Z,17.3
2017-06-16T01:05:28.171Z,17.27
2017-06-16T01:05:56.247Z,17.24
2017-06-16T01:06:24.193Z,17.23
2017-06-16T01:06:52.347Z,17.23
2017-06-16T01:07:20.419Z,17.17
2017-06-16T01:07:48.448Z,17.23
2017-06-16T01:08:16.577Z,17.14
2017-06-16T01:08:44.622Z,17.17
2017-06-16T01:09:12.773Z,17.14
2017-06-16T01:09:40.923Z,17.16
2017-06-16T01:10:09.070Z,17.09
2017-06-16T01:10:37.207Z,17.16
2017-06-16T01:11:05.238Z,17.13
2017-06-16T01:11:33.319Z,17.12
2017-06-16T01:12:01.482Z,17.16
2017-06-16T01:12:29.639Z,17.16
2017-06-16T01:12:57.684Z,17.14
2017-06-16T01:13:25.939Z,17.19
2017-06-16T01:13:54.085Z,17.19
2017-06-16T01:14:22.146Z,17.13
2017-06-16T01:14:50.303Z,17.09
2017-06-16T01:15:18.445Z,17.14
2017-06-16T01:15:46.607Z,17.13
2017-06-16T01:16:14.650Z,17.13
2017-06-16T01:16:42.811Z,17.04
2017-06-16T01:17:10.888Z,17.14
2017-06-16T01:17:39.031Z,17.14
2017-06-16T01:18:07.163Z,17.1
2017-06-16T01:18:35.231Z,17.13
2017-06-16T01:19:03.394Z,17.13
2017-06-16T01:19:31.451Z,17.14
2017-06-16T01:19:59.574Z,17.14
2017-06-16T01:20:27.612Z,17.13
2017-06-16T01:20:55.752Z,17.02
2017-06-16T01:21:23.897Z,17.01
2017-06-16T01:21:52.036Z,16.99
2017-06-16T01:22:19.887Z,17.04
2017-06-16T01:22:48.020Z,17.02
2017-06-16T01:23:16.054Z,17.02
2017-06-16T01:23:44.100Z,17.07
2017-06-16T01:24:12.135Z,17.04
2017-06-16T01:24:40.303Z,17.04
2017-06-16T01:25:08.346Z,17.04
2017-06-16T01:25:36.462Z,17.02
2017-06-16T01:26:04.616Z,17.07
2017-06-16T01:26:32.766Z,17.04
2017-06-16T01:27:00.920Z,17.01
2017-06-16T01:27:28.983Z,17.1
2017-06-16T01:27:57.115Z,17.01
2017-06-16T01:28:25.252Z,17.01
2017-06-16T01:28:53.401Z,16.99
2017-06-16T01:29:21.461Z,17.05
2017-06-16T01:29:49.515Z,17.09
2017-06-16T01:30:17.551Z,17.01
2017-06-16T01:30:45.691Z,17.05
2017-06-16T01:31:13.816Z,17.1
2017-06-16T01:31:41.949Z,16.99
2017-06-16T01:32:10.112Z,16.99
2017-06-16T01:32:38.263Z,16.97
2017-06-16T01:33:06.397Z,16.97
2017-06-16T01:33:34.534Z,17.05
2017-06-16T01:34:02.670Z,16.97
2017-06-16T01:34:30.728Z,16.97
2017-06-16T01:34:58.844Z,16.99
2017-06-16T01:35:27.023Z,16.98
2017-06-16T01:35:55.069Z,16.94
2017-06-16T01:36:23.133Z,16.95
2017-06-16T01:36:51.173Z,16.94
2017-06-16T01:37:19.321Z,16.94
2017-06-16T01:37:47.465Z,16.91
2017-06-16T01:38:15.631Z,16.91
2017-06-16T01:38:43.701Z,16.89
2017-06-16T01:39:11.840Z,16.87
2017-06-16T01:39:40.017Z,16.89
2017-06-16T01:40:08.159Z,16.91
2017-06-16T01:40:36.303Z,16.87
2017-06-16T01:41:04.445Z,16.94
2017-06-16T01:41:32.482Z,16.87
2017-06-16T01:42:00.538Z,16.92
2017-06-16T01:42:28.589Z,16.99
2017-06-16T01:42:56.754Z,16.98
2017-06-16T01:43:24.810Z,17.02
2017-06-16T01:43:52.944Z,16.97
2017-06-16T01:44:21.119Z,16.89
2017-06-16T01:44:49.272Z,16.89
2017-06-16T01:45:17.416Z,16.86
2017-06-16T01:45:45.546Z,16.89
2017-06-16T01:46:13.693Z,16.89
2017-06-16T01:46:41.833Z,16.83
2017-06-16T01:47:09.958Z,16.87
2017-06-16T01:47:38.091Z,16.89
2017-06-16T01:48:06.142Z,16.86
2017-06-16T01:48:34.175Z,16.83
2017-06-16T01:49:02.317Z,16.87
2017-06-16T01:49:30.483Z,16.87
2017-06-16T01:49:58.629Z,16.89
2017-06-16T01:50:26.697Z,16.83
2017-06-16T01:50:54.627Z,16.87
2017-06-16T01:51:22.784Z,16.84
2017-06-16T01:51:50.924Z,16.8
2017-06-16T01:52:19.049Z,16.76
2017-06-16T01:52:47.186Z,16.74
2017-06-16T01:53:15.337Z,16.74
2017-06-16T01:53:43.301Z,16.74
2017-06-16T01:54:11.443Z,16.76
2017-06-16T01:54:39.514Z,16.8
2017-06-16T01:55:07.571Z,16.68
2017-06-16T01:55:35.712Z,16.74
2017-06-16T01:56:03.842Z,16.68
2017-06-16T01:56:31.994Z,16.72
2017-06-16T01:57:00.152Z,16.66
2017-06-16T01:57:28.206Z,16.73
2017-06-16T01:57:56.327Z,16.64
2017-06-16T01:58:24.475Z,16.64
2017-06-16T01:58:52.596Z,16.58
2017-06-16T01:59:20.738Z,16.55
2017-06-16T01:59:48.679Z,16.65
2017-06-16T02:00:16.814Z,16.57
2017-06-16T02:00:44.950Z,16.61
2017-06-16T02:01:13.087Z,16.59
2017-06-16T02:01:41.121Z,16.55
2017-06-16T02:02:09.255Z,16.5
2017-06-16T02:02:37.218Z,16.59
2017-06-16T02:03:05.245Z,16.58
2017-06-16T02:03:33.383Z,16.57
2017-06-16T02:04:01.437Z,16.49
2017-06-16T02:04:29.565Z,16.55
2017-06-16T02:04:57.628Z,16.43
2017-06-16T02:05:25.583Z,16.47
2017-06-16T02:05:53.735Z,16.43
2017-06-16T02:06:21.895Z,16.4
2017-06-16T02:06:49.943Z,16.44
2017-06-16T02:07:18.051Z,16.44
2017-06-16T02:07:46.082Z,16.41
2017-06-16T02:08:14.219Z,16.43
2017-06-16T02:08:42.357Z,16.44
2017-06-16T02:09:10.515Z,16.41
2017-06-16T02:09:38.651Z,16.43
2017-06-16T02:10:06.709Z,16.43
2017-06-16T02:10:34.832Z,16.44
2017-06-16T02:11:02.884Z,16.5
2017-06-16T02:11:30.950Z,16.49
2017-06-16T02:11:58.985Z,16.4
2017-06-16T02:12:27.112Z,16.46
2017-06-16T02:12:55.180Z,16.46
2017-06-16T02:13:23.253Z,16.44
2017-06-16T02:13:51.421Z,16.47
2017-06-16T02:14:19.562Z,16.44
2017-06-16T02:14:47.609Z,16.43
2017-06-16T02:15:15.565Z,16.43
2017-06-16T02:15:43.611Z,16.44
2017-06-16T02:16:11.652Z,16.43
2017-06-16T02:16:39.797Z,16.44
2017-06-16T02:17:07.958Z,16.44
2017-06-16T02:17:35.932Z,16.43
2017-06-16T02:18:04.077Z,16.41
2017-06-16T02:18:32.199Z,16.4
2017-06-16T02:19:00.243Z,16.41
2017-06-16T02:19:28.380Z,16.55
2017-06-16T02:19:56.425Z,16.55
2017-06-16T02:20:24.480Z,16.51
2017-06-16T02:20:52.640Z,16.54
2017-06-16T02:21:20.592Z,16.58
2017-06-16T02:21:48.744Z,16.49
2017-06-16T02:22:16.871Z,16.54
2017-06-16T02:22:45.012Z,16.55
2017-06-16T02:23:13.189Z,16.57
2017-06-16T02:23:41.355Z,16.5
2017-06-16T02:24:09.410Z,16.51
2017-06-16T02:24:37.538Z,16.47
2017-06-16T02:25:05.682Z,16.41
2017-06-16T02:25:33.749Z,16.5
2017-06-16T02:26:01.878Z,16.47
2017-06-16T02:26:29.998Z,16.4
2017-06-16T02:26:58.160Z,16.44
2017-06-16T02:27:26.192Z,16.43
2017-06-16T02:27:54.158Z,16.44
2017-06-16T02:28:22.301Z,16.43
2017-06-16T02:28:50.460Z,16.41
2017-06-16T02:29:18.599Z,16.41
2017-06-16T02:29:46.743Z,16.34
2017-06-16T02:30:14.807Z,16.32
2017-06-16T02:30:42.850Z,16.36
2017-06-16T02:31:10.900Z,16.44
2017-06-16T02:31:39.048Z,16.4
2017-06-16T02:32:07.191Z,16.44
2017-06-16T02:32:35.333Z,16.39
2017-06-16T02:33:03.479Z,16.39
2017-06-16T02:33:31.593Z,16.41
2017-06-16T02:33:59.744Z,16.32
2017-06-16T02:34:27.872Z,16.36
2017-06-16T02:34:55.999Z,16.36
2017-06-16T02:35:24.128Z,16.36
2017-06-16T02:35:52.268Z,16.26
2017-06-16T02:36:20.415Z,16.31
2017-06-16T02:36:48.476Z,16.41
2017-06-16T02:37:16.660Z,16.32
2017-06-16T02:37:44.757Z,16.32
2017-06-16T02:38:12.911Z,16.36
2017-06-16T02:38:41.073Z,16.44
2017-06-16T02:39:09.195Z,16.32
2017-06-16T02:39:37.250Z,16.32
2017-06-16T02:40:05.280Z,16.32
2017-06-16T02:40:33.332Z,16.44
2017-06-16T02:41:01.366Z,16.26
2017-06-16T02:41:29.510Z,16.31
2017-06-16T02:41:57.639Z,16.32
2017-06-16T02:42:25.671Z,16.26
2017-06-16T02:42:53.807Z,16.31
2017-06-16T02:43:21.958Z,16.29
2017-06-16T02:43:49.846Z,16.26
2017-06-16T02:44:17.912Z,16.28
2017-06-16T02:44:45.963Z,16.29
2017-06-16T02:45:14.023Z,16.29
2017-06-16T02:45:42.184Z,16.28
2017-06-16T02:46:10.354Z,16.32
2017-06-16T02:46:38.407Z,16.28
2017-06-16T02:47:06.512Z,16.28
2017-06-16T02:47:34.638Z,16.18
2017-06-16T02:48:02.762Z,16.26
2017-06-16T02:48:30.888Z,16.26
2017-06-16T02:48:58.942Z,16.29
2017-06-16T02:49:27.089Z,16.28
2017-06-16T02:49:55.199Z,16.24
2017-06-16T02:50:23.261Z,16.22
2017-06-16T02:50:51.413Z,16.25
2017-06-16T02:51:19.465Z,16.28
2017-06-16T02:51:47.516Z,16.29
2017-06-16T02:52:15.603Z,16.22
2017-06-16T02:52:43.645Z,16.28
2017-06-16T02:53:11.777Z,16.25
2017-06-16T02:53:39.945Z,16.26
2017-06-16T02:54:08.075Z,16.17
2017-06-16T02:54:36.206Z,16.24
2017-06-16T02:55:04.345Z,16.26
2017-06-16T02:55:32.580Z,16.26
2017-06-16T02:56:00.741Z,16.16
2017-06-16T02:56:28.892Z,16.26
2017-06-16T02:56:57.044Z,16.21
2017-06-16T02:57:25.178Z,16.24
2017-06-16T02:57:53.304Z,16.18
2017-06-16T02:58:21.466Z,16.18
2017-06-16T02:58:49.514Z,16.25
2017-06-16T02:59:17.647Z,16.18
2017-06-16T02:59:45.790Z,16.21
2017-06-16T03:00:13.833Z,16.25
2017-06-16T03:00:41.980Z,16.17
2017-06-16T03:01:10.108Z,16.21
2017-06-16T03:01:38.272Z,16.21
2017-06-16T03:02:06.342Z,16.25
2017-06-16T03:02:34.389Z,16.24
2017-06-16T03:03:02.544Z,16.25
2017-06-16T03:03:30.691Z,16.17
2017-06-16T03:03:58.830Z,16.22
2017-06-16T03:04:26.897Z,16.22
2017-06-16T03:04:54.950Z,16.17
2017-06-16T03:05:22.968Z,16.18
2017-06-16T03:05:51.118Z,16.21
2017-06-16T03:06:19.274Z,16.25
2017-06-16T03:06:47.435Z,16.22
2017-06-16T03:07:15.581Z,16.12
2017-06-16T03:07:43.731Z,16.12
2017-06-16T03:08:11.696Z,16.12
2017-06-16T03:08:39.854Z,16.08
2017-06-16T03:09:07.999Z,16.06
2017-06-16T03:09:36.068Z,16.08
2017-06-16T03:10:04.199Z,16.05
2017-06-16T03:10:32.314Z,16.08
2017-06-16T03:11:00.370Z,16.06
2017-06-16T03:11:28.514Z,16.12
2017-06-16T03:11:56.554Z,16.03
2017-06-16T03:12:24.597Z,16.02
2017-06-16T03:12:52.637Z,16.03
2017-06-16T03:13:20.770Z,15.96
2017-06-16T03:13:48.910Z,15.99
2017-06-16T03:14:16.941Z,16
2017-06-16T03:14:45.063Z,16.08
2017-06-16T03:15:13.190Z,15.98
2017-06-16T03:15:41.328Z,15.98
2017-06-16T03:16:09.466Z,16
2017-06-16T03:16:37.616Z,16
2017-06-16T03:17:05.763Z,16.03
2017-06-16T03:17:33.901Z,16
2017-06-16T03:18:01.919Z,16.05
2017-06-16T03:18:29.976Z,16.05
2017-06-16T03:18:58.039Z,16.03
2017-06-16T03:19:26.161Z,15.96
2017-06-16T03:19:54.212Z,15.99
2017-06-16T03:20:22.379Z,16.02
2017-06-16T03:20:50.418Z,15.98
2017-06-16T03:21:18.383Z,15.91
2017-06-16T03:21:46.503Z,15.96
2017-06-16T03:22:14.545Z,15.98
2017-06-16T03:22:42.601Z,15.96
2017-06-16T03:23:10.732Z,15.84
2017-06-16T03:23:38.774Z,15.98
2017-06-16T03:24:06.752Z,15.91
2017-06-16T03:24:34.788Z,15.94
2017-06-16T03:25:02.914Z,15.9
2017-06-16T03:25:31.085Z,15.9
2017-06-16T03:25:59.098Z,15.94
2017-06-16T03:26:27.226Z,15.92
2017-06-16T03:26:55.398Z,15.9
2017-06-16T03:27:23.416Z,15.94
2017-06-16T03:27:51.565Z,15.84
2017-06-16T03:28:19.707Z,15.87
2017-06-16T03:28:47.766Z,15.99
2017-06-16T03:29:15.904Z,15.96
2017-06-16T03:29:44.059Z,15.91
2017-06-16T03:30:12.199Z,15.92
2017-06-16T03:30:40.246Z,15.88
2017-06-16T03:31:08.384Z,15.84
2017-06-16T03:31:36.526Z,15.81
2017-06-16T03:32:04.583Z,15.83
2017-06-16T03:32:32.710Z,15.85
2017-06-16T03:33:00.874Z,15.88
2017-06-16T03:33:28.923Z,15.75
2017-06-16T03:33:56.970Z,15.85
2017-06-16T03:34:25.093Z,15.84
2017-06-16T03:34:53.213Z,15.76
2017-06-16T03:35:21.363Z,15.81
2017-06-16T03:35:49.388Z,15.84
2017-06-16T03:36:17.409Z,15.83
2017-06-16T03:36:45.536Z,15.85
2017-06-16T03:37:13.589Z,15.81
2017-06-16T03:37:41.715Z,15.73
2017-06-16T03:38:09.822Z,15.8
2017-06-16T03:38:37.784Z,15.73
2017-06-16T03:39:05.907Z,15.7
2017-06-16T03:39:33.858Z,15.8
2017-06-16T03:40:02.004Z,15.73
2017-06-16T03:40:30.138Z,15.75
2017-06-16T03:40:58.211Z,15.78
2017-06-16T03:41:26.332Z,15.73
2017-06-16T03:41:54.400Z,15.72
2017-06-16T03:42:22.416Z,15.76
2017-06-16T03:42:50.572Z,15.75
2017-06-16T03:43:18.713Z,15.69
2017-06-16T03:43:46.876Z,15.67
2017-06-16T03:44:15.005Z,15.66
2017-06-16T03:44:43.048Z,15.73
2017-06-16T03:45:11.161Z,15.78
2017-06-16T03:45:39.309Z,15.66
2017-06-16T03:46:07.448Z,15.66
2017-06-16T03:46:35.405Z,15.76
2017-06-16T03:47:03.550Z,15.73
2017-06-16T03:47:31.603Z,15.72
2017-06-16T03:47:59.649Z,15.7
2017-06-16T03:48:27.682Z,15.75
2017-06-16T03:48:55.807Z,15.7
2017-06-16T03:49:23.940Z,15.69
2017-06-16T03:49:51.974Z,15.73
2017-06-16T03:50:20.129Z,15.63
2017-06-16T03:50:48.272Z,15.72
2017-06-16T03:51:16.443Z,15.72
2017-06-16T03:51:44.598Z,15.67
2017-06-16T03:52:12.743Z,15.66
2017-06-16T03:52:40.884Z,15.63
2017-06-16T03:53:09.046Z,15.67
2017-06-16T03:53:37.110Z,15.57
2017-06-16T03:54:05.180Z,15.62
2017-06-16T03:54:33.303Z,15.62
2017-06-16T03:55:01.432Z,15.59
2017-06-16T03:55:29.557Z,15.55
2017-06-16T03:55:57.667Z,15.59
2017-06-16T03:56:25.827Z,15.69
2017-06-16T03:56:53.879Z,15.57
2017-06-16T03:57:22.030Z,15.65
2017-06-16T03:57:50.106Z,15.63
2017-06-16T03:58:18.233Z,15.66
2017-06-16T03:58:46.312Z,15.57
2017-06-16T03:59:14.446Z,15.62
2017-06-16T03:59:42.493Z,15.66
2017-06-16T04:00:10.635Z,15.6
2017-06-16T04:00:41.660Z,15.54
2017-06-16T04:01:09.722Z,15.55
2017-06-16T04:01:37.777Z,15.62
2017-06-16T04:02:05.897Z,15.67
2017-06-16T04:02:33.969Z,15.52
2017-06-16T04:03:02.105Z,15.59
2017-06-16T04:03:30.260Z,15.54
2017-06-16T04:03:58.378Z,15.51
2017-06-16T04:04:26.415Z,15.57
2017-06-16T04:04:54.556Z,15.51
2017-06-16T04:05:22.696Z,15.52
2017-06-16T04:05:50.847Z,15.47
2017-06-16T04:06:18.991Z,15.48
2017-06-16T04:06:47.049Z,15.45
2017-06-16T04:07:15.114Z,15.54
2017-06-16T04:07:43.167Z,15.45
2017-06-16T04:08:11.197Z,15.45
2017-06-16T04:08:39.247Z,15.47
2017-06-16T04:09:07.290Z,15.48
2017-06-16T04:09:35.446Z,15.37
2017-06-16T04:10:03.603Z,15.47
2017-06-16T04:10:31.546Z,15.44
2017-06-16T04:10:59.573Z,15.43
2017-06-16T04:11:27.705Z,15.39
2017-06-16T04:11:55.874Z,15.37
2017-06-16T04:12:24.035Z,15.41
2017-06-16T04:12:51.990Z,15.43
2017-06-16T04:13:20.115Z,15.37
2017-06-16T04:13:48.240Z,15.43
2017-06-16T04:14:16.278Z,15.37
2017-06-16T04:14:44.304Z,15.37
2017-06-16T04:15:12.250Z,15.37
2017-06-16T04:15:40.426Z,15.39
2017-06-16T04:16:08.570Z,15.32
2017-06-16T04:16:36.690Z,15.37
2017-06-16T04:17:04.640Z,15.43
2017-06-16T04:17:32.750Z,15.35
2017-06-16T04:18:00.895Z,15.36
2017-06-16T04:18:28.945Z,15.27
2017-06-16T04:18:57.078Z,15.37
2017-06-16T04:19:25.215Z,15.29
2017-06-16T04:19:53.357Z,15.26
2017-06-16T04:20:21.508Z,15.33
2017-06-16T04:20:49.654Z,15.3
2017-06-16T04:21:17.794Z,15.3
2017-06-16T04:21:45.950Z,15.27
2017-06-16T04:22:14.104Z,15.35
2017-06-16T04:22:42.246Z,15.35
2017-06-16T04:23:10.286Z,15.29
2017-06-16T04:23:38.422Z,15.29
2017-06-16T04:24:06.577Z,15.3
2017-06-16T04:24:34.742Z,15.32
2017-06-16T04:25:02.989Z,15.27
2017-06-16T04:25:31.118Z,15.32
2017-06-16T04:25:59.248Z,15.29
2017-06-16T04:26:27.380Z,15.33
2017-06-16T04:26:55.469Z,15.3
2017-06-16T04:27:23.526Z,15.3
2017-06-16T04:27:51.689Z,15.26
2017-06-16T04:28:19.729Z,15.22
2017-06-16T04:28:47.845Z,15.23
2017-06-16T04:29:15.974Z,15.19
2017-06-16T04:29:44.126Z,15.19
2017-06-16T04:30:12.183Z,15.18
2017-06-16T04:30:40.329Z,15.19
2017-06-16T04:31:08.487Z,15.18
2017-06-16T04:31:36.630Z,15.19
2017-06-16T04:32:04.678Z,15.18
2017-06-16T04:32:32.725Z,15.23
2017-06-16T04:33:00.873Z,15.19
2017-06-16T04:33:28.915Z,15.15
2017-06-16T04:33:57.076Z,15.18
2017-06-16T04:34:25.214Z,15.18
2017-06-16T04:34:53.340Z,15.1
2017-06-16T04:35:21.365Z,15.15
2017-06-16T04:35:49.415Z,15.14
2017-06-16T04:36:17.446Z,15.17
2017-06-16T04:36:45.586Z,15.1
2017-06-16T04:37:13.625Z,15.15
2017-06-16T04:37:41.762Z,15.18
2017-06-16T04:38:09.913Z,15.1
2017-06-16T04:38:38.059Z,15.15
2017-06-16T04:39:06.170Z,15.1
2017-06-16T04:39:34.324Z,15.12
2017-06-16T04:40:02.486Z,15.18
2017-06-16T04:40:30.551Z,15.07
2017-06-16T04:40:58.702Z,15.07
2017-06-16T04:41:26.746Z,15.05
2017-06-16T04:41:54.922Z,15.08
2017-06-16T04:42:23.079Z,15.07
2017-06-16T04:42:51.236Z,15.05
2017-06-16T04:43:19.374Z,15.18
2017-06-16T04:43:47.507Z,15.04
2017-06-16T04:44:15.525Z,15.08
2017-06-16T04:44:43.635Z,15.05
2017-06-16T04:45:11.678Z,15.08
2017-06-16T04:45:39.833Z,15.08
2017-06-16T04:46:07.967Z,15.08
2017-06-16T04:46:36.105Z,15.07
2017-06-16T04:47:04.245Z,15.07
2017-06-16T04:47:32.375Z,15.04
2017-06-16T04:48:00.509Z,15.12
2017-06-16T04:48:28.575Z,15
2017-06-16T04:48:56.632Z,15.07
2017-06-16T04:49:24.780Z,15.1
2017-06-16T04:49:52.833Z,15.1
2017-06-16T04:50:21.006Z,15.05
2017-06-16T04:50:49.117Z,15.05
2017-06-16T04:51:17.258Z,15.04
2017-06-16T04:51:45.375Z,14.96
2017-06-16T04:52:13.318Z,15
2017-06-16T04:52:41.460Z,15.04
2017-06-16T04:53:09.617Z,15.04
2017-06-16T04:53:37.756Z,15.07
2017-06-16T04:54:05.706Z,15.04
2017-06-16T04:54:33.856Z,15.07
2017-06-16T04:55:01.984Z,15.11
2017-06-16T04:55:30.155Z,15.1
2017-06-16T04:55:58.285Z,15.04
2017-06-16T04:56:26.435Z,15.15
2017-06-16T04:56:54.591Z,15.12
2017-06-16T04:57:22.751Z,15.08
2017-06-16T04:57:50.897Z,15.08
2017-06-16T04:58:19.021Z,15.18
2017-06-16T04:58:47.076Z,15.07
2017-06-16T04:59:15.241Z,15.12
2017-06-16T04:59:43.294Z,15.07
2017-06-16T05:00:11.221Z,15.08
2017-06-16T05:00:39.359Z,15.11
2017-06-16T05:01:07.425Z,15.14
2017-06-16T05:01:35.592Z,15.07
2017-06-16T05:02:03.738Z,15.1
2017-06-16T05:02:31.784Z,15.08
2017-06-16T05:02:59.938Z,15.07
2017-06-16T05:03:28.102Z,14.99
2017-06-16T05:03:56.246Z,15.05
2017-06-16T05:04:24.406Z,15.15
2017-06-16T05:04:52.560Z,15.04
2017-06-16T05:05:20.715Z,15.04
2017-06-16T05:05:48.853Z,15.12
2017-06-16T05:06:17.000Z,15
2017-06-16T05:06:45.128Z,14.96
2017-06-16T05:07:13.279Z,14.99
2017-06-16T05:07:41.307Z,15.04
2017-06-16T05:08:09.327Z,15
2017-06-16T05:08:37.364Z,15.05
2017-06-16T05:09:05.486Z,15.04
2017-06-16T05:09:33.513Z,15.07
2017-06-16T05:10:01.647Z,15.04
2017-06-16T05:10:29.513Z,15.05
2017-06-16T05:10:57.648Z,15.08
2017-06-16T05:11:25.781Z,14.99
2017-06-16T05:11:53.943Z,15
2017-06-16T05:12:22.099Z,15.1
2017-06-16T05:12:50.235Z,15.1
2017-06-16T05:13:18.267Z,15.05
2017-06-16T05:13:46.431Z,15.08
2017-06-16T05:14:14.594Z,15.08
2017-06-16T05:14:42.765Z,15.07
2017-06-16T05:15:10.814Z,15.05
2017-06-16T05:15:38.937Z,15.1
2017-06-16T05:16:07.080Z,15.07
2017-06-16T05:16:35.119Z,15.04
2017-06-16T05:17:03.245Z,15.08
2017-06-16T05:17:31.393Z,14.96
2017-06-16T05:17:59.424Z,15.02
2017-06-16T05:18:27.563Z,14.97
2017-06-16T05:18:55.709Z,14.99
2017-06-16T05:19:23.738Z,15
2017-06-16T05:19:51.784Z,15
2017-06-16T05:20:19.913Z,15
2017-06-16T05:20:48.043Z,15
2017-06-16T05:21:16.192Z,14.97
2017-06-16T05:21:44.343Z,15
2017-06-16T05:22:12.486Z,14.99
2017-06-16T05:22:40.613Z,15.02
2017-06-16T05:23:08.771Z,14.99
2017-06-16T05:23:36.806Z,15.11
2017-06-16T05:24:04.764Z,15.02
2017-06-16T05:24:32.809Z,14.99
2017-06-16T05:25:00.937Z,15.08
2017-06-16T05:25:29.099Z,15.05
2017-06-16T05:25:57.261Z,15.07
2017-06-16T05:26:25.318Z,15.07
2017-06-16T05:26:53.372Z,15.05
2017-06-16T05:27:21.493Z,15.04
2017-06-16T05:27:49.611Z,15.08
2017-06-16T05:28:17.755Z,15.08
2017-06-16T05:28:45.898Z,15.08
2017-06-16T05:29:14.043Z,15.04
2017-06-16T05:29:42.160Z,15.02
2017-06-16T05:30:10.220Z,15.08
2017-06-16T05:30:38.366Z,15.1
2017-06-16T05:31:06.496Z,15.08
2017-06-16T05:31:34.526Z,15.1
2017-06-16T05:32:02.574Z,15.07
2017-06-16T05:32:30.695Z,15.08
2017-06-16T05:32:58.850Z,15.05
2017-06-16T05:33:26.909Z,15.11
2017-06-16T05:33:55.049Z,15.18
2017-06-16T05:34:23.101Z,15.04
2017-06-16T05:34:51.256Z,15.17
2017-06-16T05:35:19.384Z,15.15
2017-06-16T05:35:47.554Z,15.12
2017-06-16T05:36:15.615Z,15.18
2017-06-16T05:36:43.781Z,15.12
2017-06-16T05:37:11.926Z,15.15
2017-06-16T05:37:40.052Z,15.17
2017-06-16T05:38:08.003Z,15.17
2017-06-16T05:38:36.120Z,15.23
2017-06-16T05:39:04.259Z,15.18
2017-06-16T05:39:32.401Z,15.27
2017-06-16T05:40:00.549Z,15.23
2017-06-16T05:40:28.673Z,15.23
2017-06-16T05:40:56.863Z,15.29
2017-06-16T05:41:24.922Z,15.26
2017-06-16T05:41:53.100Z,15.26
2017-06-16T05:42:21.225Z,15.33
2017-06-16T05:42:49.366Z,15.3
2017-06-16T05:43:17.534Z,15.3
2017-06-16T05:43:45.676Z,15.27
2017-06-16T05:44:13.794Z,15.29
2017-06-16T05:44:41.950Z,15.3
2017-06-16T05:45:10.007Z,15.29
2017-06-16T05:45:38.159Z,15.3
2017-06-16T05:46:06.293Z,15.33
2017-06-16T05:46:34.426Z,15.33
2017-06-16T05:47:02.491Z,15.3
2017-06-16T05:47:33.649Z,15.33
2017-06-16T05:48:01.774Z,15.3
2017-06-16T05:48:29.834Z,15.25
2017-06-16T05:48:57.957Z,15.19
2017-06-16T05:49:26.074Z,15.17
2017-06-16T05:49:54.243Z,15.22
2017-06-16T05:50:22.391Z,15.18
2017-06-16T05:50:50.429Z,15.22
2017-06-16T05:51:18.564Z,15.15
2017-06-16T05:51:46.709Z,15.15
2017-06-16T05:52:14.845Z,15.25
2017-06-16T05:52:43.000Z,15.18
2017-06-16T05:53:11.154Z,15.18
2017-06-16T05:53:39.293Z,15.18
2017-06-16T05:54:07.442Z,15.17
2017-06-16T05:54:35.592Z,15.23
2017-06-16T05:55:03.625Z,15.22
2017-06-16T05:55:31.761Z,15.12
2017-06-16T05:55:59.928Z,15.17
2017-06-16T05:56:28.083Z,15.18
2017-06-16T05:56:56.229Z,15.25
2017-06-16T05:57:24.364Z,15.17
2017-06-16T05:57:52.509Z,15.18
2017-06-16T05:58:20.480Z,15.22
2017-06-16T05:58:48.627Z,15.23
2017-06-16T05:59:16.756Z,15.19
2017-06-16T05:59:44.888Z,15.14
2017-06-16T06:00:13.009Z,15.15
2017-06-16T06:00:41.141Z,15.19
2017-06-16T06:01:09.279Z,15.25
2017-06-16T06:01:37.416Z,15.11
2017-06-16T06:02:05.435Z,15.17
2017-06-16T06:02:33.594Z,15.11
2017-06-16T06:03:01.697Z,15.11
2017-06-16T06:03:29.838Z,15.11
2017-06-16T06:03:57.987Z,15.14